sensor_id;sensor_type;location;lat;lon;timestamp;pressure;altitude;pressure_sealevel;temperature;humidity
40315;BME280;26021;45.640;11.302;2022-12-18T00:00:27;99817.56;;;3.75;100.00
40315;BME280;26021;45.640;11.302;2022-12-18T00:02:53;99821.28;;;3.73;100.00
40315;BME280;26021;45.640;11.302;2022-12-18T00:05:18;99814.72;;;3.66;100.00
40315;BME280;26021;45.640;11.302;2022-12-18T00:07:44;99797.28;;;3.50;100.00
40315;BME280;26021;45.640;11.302;2022-12-18T00:10:09;99821.47;;;3.70;100.00
40315;BME280;26021;45.640;11.302;2022-12-18T00:12:35;99821.47;;;3.70;100.00
40315;BME280;26021;45.640;11.302;2022-12-18T00:15:00;99822.91;;;3.37;100.00
40315;BME280;26021;45.640;11.302;2022-12-18T00:17:25;99600.19;;;2.22;100.00
40315;BME280;26021;45.640;11.302;2022-12-18T00:19:51;99744.25;;;3.15;100.00
40315;BME280;26021;45.640;11.302;2022-12-18T00:22:16;99827.44;;;3.48;100.00
40315;BME280;26021;45.640;11.302;2022-12-18T00:24:42;99822.25;;;3.46;100.00
40315;BME280;26021;45.640;11.302;2022-12-18T00:27:07;99729.78;;;2.83;100.00
40315;BME280;26021;45.640;11.302;2022-12-18T00:29:33;99742.16;;;3.08;100.00
40315;BME280;26021;45.640;11.302;2022-12-18T00:31:59;99834.09;;;3.54;100.00
40315;BME280;26021;45.640;11.302;2022-12-18T00:34:24;99827.97;;;3.53;100.00
40315;BME280;26021;45.640;11.302;2022-12-18T00:36:49;99659.88;;;2.38;100.00
40315;BME280;26021;45.640;11.302;2022-12-18T00:39:15;99839.94;;;3.46;100.00
40315;BME280;26021;45.640;11.302;2022-12-18T00:41:40;99754.41;;;2.96;100.00
40315;BME280;26021;45.640;11.302;2022-12-18T00:44:24;99850.00;;;3.41;100.00
40315;BME280;26021;45.640;11.302;2022-12-18T00:46:50;99580.53;;;1.76;100.00
40315;BME280;26021;45.640;11.302;2022-12-18T00:49:17;99856.34;;;3.26;100.00
40315;BME280;26021;45.640;11.302;2022-12-18T00:51:43;99814.38;;;3.21;100.00
40315;BME280;26021;45.640;11.302;2022-12-18T00:54:09;99804.00;;;3.05;100.00
40315;BME280;26021;45.640;11.302;2022-12-18T00:56:38;99856.13;;;3.41;100.00
40315;BME280;26021;45.640;11.302;2022-12-18T00:59:04;99840.28;;;3.16;100.00
40315;BME280;26021;45.640;11.302;2022-12-18T01:01:29;99855.38;;;3.27;100.00
40315;BME280;26021;45.640;11.302;2022-12-18T01:04:00;99868.72;;;3.12;100.00
40315;BME280;26021;45.640;11.302;2022-12-18T01:06:26;99801.53;;;2.77;100.00
40315;BME280;26021;45.640;11.302;2022-12-18T01:08:52;99814.22;;;2.72;100.00
40315;BME280;26021;45.640;11.302;2022-12-18T01:11:19;99879.66;;;2.94;100.00
40315;BME280;26021;45.640;11.302;2022-12-18T01:13:44;99880.72;;;2.91;100.00
40315;BME280;26021;45.640;11.302;2022-12-18T01:16:14;99889.00;;;2.99;100.00
40315;BME280;26021;45.640;11.302;2022-12-18T01:18:41;99864.63;;;2.81;100.00
40315;BME280;26021;45.640;11.302;2022-12-18T01:21:08;99857.31;;;2.60;100.00
40315;BME280;26021;45.640;11.302;2022-12-18T01:23:34;99868.09;;;2.69;100.00
40315;BME280;26021;45.640;11.302;2022-12-18T01:26:11;99885.78;;;2.94;100.00
40315;BME280;26021;45.640;11.302;2022-12-18T01:28:37;99827.19;;;2.62;100.00
40315;BME280;26021;45.640;11.302;2022-12-18T01:31:18;99906.72;;;2.97;100.00
40315;BME280;26021;45.640;11.302;2022-12-18T01:33:44;99914.59;;;2.72;100.00
40315;BME280;26021;45.640;11.302;2022-12-18T01:36:36;99907.41;;;2.74;100.00
40315;BME280;26021;45.640;11.302;2022-12-18T01:39:05;99880.53;;;2.54;100.00
40315;BME280;26021;45.640;11.302;2022-12-18T01:41:32;99917.41;;;2.96;100.00
40315;BME280;26021;45.640;11.302;2022-12-18T01:50:17;99922.66;;;2.83;100.00
40315;BME280;26021;45.640;11.302;2022-12-18T01:52:46;99928.44;;;3.02;100.00
40315;BME280;26021;45.640;11.302;2022-12-18T01:55:15;99852.72;;;2.49;100.00
40315;BME280;26021;45.640;11.302;2022-12-18T01:57:41;99912.47;;;2.64;100.00
40315;BME280;26021;45.640;11.302;2022-12-18T02:00:13;99839.72;;;2.19;100.00
40315;BME280;26021;45.640;11.302;2022-12-18T02:02:41;99945.75;;;2.67;100.00
40315;BME280;26021;45.640;11.302;2022-12-18T02:05:07;99923.19;;;2.48;100.00
40315;BME280;26021;45.640;11.302;2022-12-18T02:10:17;99908.38;;;2.73;100.00
40315;BME280;26021;45.640;11.302;2022-12-18T02:12:46;99949.78;;;2.99;100.00
40315;BME280;26021;45.640;11.302;2022-12-18T02:18:14;99892.66;;;2.84;100.00
40315;BME280;26021;45.640;11.302;2022-12-18T02:20:47;99942.19;;;3.07;100.00
40315;BME280;26021;45.640;11.302;2022-12-18T02:28:20;99938.75;;;2.93;100.00
40315;BME280;26021;45.640;11.302;2022-12-18T02:30:49;99924.00;;;2.76;100.00
40315;BME280;26021;45.640;11.302;2022-12-18T02:33:16;99933.88;;;2.86;100.00
40315;BME280;26021;45.640;11.302;2022-12-18T02:35:45;99938.50;;;2.83;100.00
40315;BME280;26021;45.640;11.302;2022-12-18T02:38:11;99951.28;;;2.76;100.00
40315;BME280;26021;45.640;11.302;2022-12-18T02:40:38;99949.19;;;2.81;100.00
40315;BME280;26021;45.640;11.302;2022-12-18T02:43:12;99865.66;;;2.27;100.00
40315;BME280;26021;45.640;11.302;2022-12-18T02:45:50;99767.56;;;1.52;100.00
40315;BME280;26021;45.640;11.302;2022-12-18T02:48:18;99883.84;;;2.17;100.00
40315;BME280;26021;45.640;11.302;2022-12-18T02:50:57;99972.41;;;2.76;100.00
40315;BME280;26021;45.640;11.302;2022-12-18T02:53:43;99933.34;;;2.54;100.00
40315;BME280;26021;45.640;11.302;2022-12-18T02:56:16;99892.91;;;2.27;100.00
40315;BME280;26021;45.640;11.302;2022-12-18T02:59:11;99966.47;;;2.73;100.00
40315;BME280;26021;45.640;11.302;2022-12-18T03:01:45;99961.31;;;2.71;100.00
40315;BME280;26021;45.640;11.302;2022-12-18T03:06:54;99966.44;;;2.60;100.00
40315;BME280;26021;45.640;11.302;2022-12-18T03:09:24;99968.91;;;2.49;100.00
40315;BME280;26021;45.640;11.302;2022-12-18T03:11:58;99905.25;;;2.12;100.00
40315;BME280;26021;45.640;11.302;2022-12-18T03:14:45;99825.44;;;1.68;100.00
40315;BME280;26021;45.640;11.302;2022-12-18T03:17:16;99938.13;;;2.35;100.00
40315;BME280;26021;45.640;11.302;2022-12-18T03:19:45;99945.50;;;2.30;100.00
40315;BME280;26021;45.640;11.302;2022-12-18T03:22:13;99897.16;;;2.01;100.00
40315;BME280;26021;45.640;11.302;2022-12-18T03:24:38;99975.16;;;2.48;100.00
40315;BME280;26021;45.640;11.302;2022-12-18T03:27:08;99924.56;;;2.13;100.00
40315;BME280;26021;45.640;11.302;2022-12-18T03:32:10;99985.66;;;2.35;100.00
40315;BME280;26021;45.640;11.302;2022-12-18T03:34:38;99984.56;;;2.52;100.00
40315;BME280;26021;45.640;11.302;2022-12-18T03:37:06;99982.03;;;2.50;100.00
40315;BME280;26021;45.640;11.302;2022-12-18T03:39:32;99979.84;;;2.57;100.00
40315;BME280;26021;45.640;11.302;2022-12-18T03:42:00;99989.56;;;2.57;100.00
40315;BME280;26021;45.640;11.302;2022-12-18T03:44:31;99983.22;;;2.59;100.00
40315;BME280;26021;45.640;11.302;2022-12-18T03:47:07;99918.94;;;2.05;100.00
40315;BME280;26021;45.640;11.302;2022-12-18T03:49:44;99984.88;;;2.47;100.00
40315;BME280;26021;45.640;11.302;2022-12-18T03:52:20;99990.41;;;2.57;100.00
40315;BME280;26021;45.640;11.302;2022-12-18T03:54:47;99985.06;;;2.44;100.00
40315;BME280;26021;45.640;11.302;2022-12-18T03:57:32;99950.88;;;2.00;100.00
40315;BME280;26021;45.640;11.302;2022-12-18T04:00:10;99995.91;;;2.40;100.00
40315;BME280;26021;45.640;11.302;2022-12-18T04:02:39;99997.78;;;2.52;100.00
40315;BME280;26021;45.640;11.302;2022-12-18T04:05:09;100008.53;;;2.49;100.00
40315;BME280;26021;45.640;11.302;2022-12-18T04:07:36;100010.34;;;2.20;100.00
40315;BME280;26021;45.640;11.302;2022-12-18T04:10:03;99984.34;;;1.85;100.00
40315;BME280;26021;45.640;11.302;2022-12-18T04:12:30;99891.47;;;1.52;100.00
40315;BME280;26021;45.640;11.302;2022-12-18T04:14:55;100025.06;;;2.24;100.00
40315;BME280;26021;45.640;11.302;2022-12-18T04:17:21;100019.69;;;2.26;100.00
40315;BME280;26021;45.640;11.302;2022-12-18T04:19:47;100002.63;;;2.17;100.00
40315;BME280;26021;45.640;11.302;2022-12-18T04:22:13;100030.41;;;2.22;100.00
40315;BME280;26021;45.640;11.302;2022-12-18T04:24:38;100026.47;;;2.30;100.00
40315;BME280;26021;45.640;11.302;2022-12-18T04:27:04;100007.69;;;2.20;100.00
40315;BME280;26021;45.640;11.302;2022-12-18T04:29:29;99994.44;;;1.93;100.00
40315;BME280;26021;45.640;11.302;2022-12-18T04:31:55;100002.81;;;2.00;100.00
40315;BME280;26021;45.640;11.302;2022-12-18T04:34:20;100034.50;;;2.28;100.00
40315;BME280;26021;45.640;11.302;2022-12-18T04:36:46;99994.34;;;1.95;100.00
40315;BME280;26021;45.640;11.302;2022-12-18T04:39:11;100048.34;;;2.32;100.00
40315;BME280;26021;45.640;11.302;2022-12-18T04:41:37;100047.13;;;2.23;100.00
40315;BME280;26021;45.640;11.302;2022-12-18T04:44:03;100060.38;;;2.21;100.00
40315;BME280;26021;45.640;11.302;2022-12-18T04:46:28;100063.22;;;2.04;100.00
40315;BME280;26021;45.640;11.302;2022-12-18T04:48:54;100063.75;;;1.81;100.00
40315;BME280;26021;45.640;11.302;2022-12-18T04:51:19;100068.88;;;1.98;100.00
40315;BME280;26021;45.640;11.302;2022-12-18T04:53:44;100068.50;;;2.04;100.00
40315;BME280;26021;45.640;11.302;2022-12-18T04:56:12;100071.22;;;1.88;100.00
40315;BME280;26021;45.640;11.302;2022-12-18T04:58:39;100068.84;;;1.84;100.00
40315;BME280;26021;45.640;11.302;2022-12-18T05:01:06;100066.31;;;1.82;100.00
40315;BME280;26021;45.640;11.302;2022-12-18T05:03:36;100097.41;;;1.91;100.00
40315;BME280;26021;45.640;11.302;2022-12-18T05:06:02;100095.63;;;1.92;100.00
40315;BME280;26021;45.640;11.302;2022-12-18T05:08:27;100074.22;;;1.82;100.00
40315;BME280;26021;45.640;11.302;2022-12-18T05:11:00;100100.63;;;1.97;100.00
40315;BME280;26021;45.640;11.302;2022-12-18T05:13:26;100046.69;;;1.72;100.00
40315;BME280;26021;45.640;11.302;2022-12-18T05:15:52;100102.22;;;1.99;100.00
40315;BME280;26021;45.640;11.302;2022-12-18T05:18:18;100069.69;;;1.84;100.00
40315;BME280;26021;45.640;11.302;2022-12-18T05:20:43;100111.28;;;1.95;100.00
40315;BME280;26021;45.640;11.302;2022-12-18T05:23:09;100080.38;;;1.53;100.00
40315;BME280;26021;45.640;11.302;2022-12-18T05:25:34;100093.31;;;1.72;100.00
40315;BME280;26021;45.640;11.302;2022-12-18T05:28:00;100116.31;;;1.70;100.00
40315;BME280;26021;45.640;11.302;2022-12-18T05:30:25;100110.88;;;1.87;100.00
40315;BME280;26021;45.640;11.302;2022-12-18T05:32:51;100081.41;;;1.50;100.00
40315;BME280;26021;45.640;11.302;2022-12-18T05:35:16;100120.03;;;1.96;100.00
40315;BME280;26021;45.640;11.302;2022-12-18T05:37:42;100120.69;;;1.99;100.00
40315;BME280;26021;45.640;11.302;2022-12-18T05:40:07;100123.97;;;1.88;100.00
40315;BME280;26021;45.640;11.302;2022-12-18T05:42:33;100073.72;;;1.46;100.00
40315;BME280;26021;45.640;11.302;2022-12-18T05:44:58;100135.34;;;1.75;100.00
40315;BME280;26021;45.640;11.302;2022-12-18T05:47:24;100140.66;;;1.59;100.00
40315;BME280;26021;45.640;11.302;2022-12-18T05:49:49;100139.94;;;1.71;100.00
40315;BME280;26021;45.640;11.302;2022-12-18T05:52:15;100140.22;;;1.67;100.00
40315;BME280;26021;45.640;11.302;2022-12-18T05:54:40;100141.69;;;1.56;100.00
40315;BME280;26021;45.640;11.302;2022-12-18T05:57:06;100132.03;;;1.71;100.00
40315;BME280;26021;45.640;11.302;2022-12-18T05:59:31;100142.81;;;1.82;100.00
40315;BME280;26021;45.640;11.302;2022-12-18T06:01:57;100060.09;;;1.23;100.00
40315;BME280;26021;45.640;11.302;2022-12-18T06:04:22;100086.78;;;1.49;100.00
40315;BME280;26021;45.640;11.302;2022-12-18T06:06:48;100069.56;;;1.42;100.00
40315;BME280;26021;45.640;11.302;2022-12-18T06:09:13;100155.84;;;2.00;100.00
40315;BME280;26021;45.640;11.302;2022-12-18T06:11:39;100086.34;;;1.41;100.00
40315;BME280;26021;45.640;11.302;2022-12-18T06:14:08;100165.16;;;1.91;100.00
40315;BME280;26021;45.640;11.302;2022-12-18T06:16:34;100151.31;;;1.57;100.00
40315;BME280;26021;45.640;11.302;2022-12-18T06:19:02;100092.25;;;1.14;100.00
40315;BME280;26021;45.640;11.302;2022-12-18T06:21:29;100180.09;;;1.76;100.00
40315;BME280;26021;45.640;11.302;2022-12-18T06:23:55;100180.09;;;1.76;100.00
40315;BME280;26021;45.640;11.302;2022-12-18T06:26:20;100181.53;;;1.82;100.00
40315;BME280;26021;45.640;11.302;2022-12-18T06:28:46;100188.38;;;1.70;100.00
40315;BME280;26021;45.640;11.302;2022-12-18T06:31:11;100193.66;;;1.70;100.00
40315;BME280;26021;45.640;11.302;2022-12-18T06:33:37;100096.75;;;1.12;100.00
40315;BME280;26021;45.640;11.302;2022-12-18T06:36:06;100161.19;;;1.54;100.00
40315;BME280;26021;45.640;11.302;2022-12-18T06:38:34;100198.94;;;1.54;100.00
40315;BME280;26021;45.640;11.302;2022-12-18T06:40:59;100209.56;;;1.53;100.00
40315;BME280;26021;45.640;11.302;2022-12-18T06:43:25;100192.81;;;1.38;100.00
40315;BME280;26021;45.640;11.302;2022-12-18T06:45:50;100207.16;;;1.80;100.00
40315;BME280;26021;45.640;11.302;2022-12-18T06:48:19;100174.44;;;1.37;100.00
40315;BME280;26021;45.640;11.302;2022-12-18T06:50:45;100209.31;;;1.42;100.00
40315;BME280;26021;45.640;11.302;2022-12-18T06:53:10;100207.69;;;1.55;100.00
40315;BME280;26021;45.640;11.302;2022-12-18T06:55:36;100202.34;;;1.56;100.00
40315;BME280;26021;45.640;11.302;2022-12-18T06:58:01;100131.34;;;1.22;100.00
40315;BME280;26021;45.640;11.302;2022-12-18T07:00:26;100187.88;;;1.48;100.00
40315;BME280;26021;45.640;11.302;2022-12-18T07:02:52;100203.88;;;1.61;100.00
40315;BME280;26021;45.640;11.302;2022-12-18T07:05:17;100216.56;;;1.54;100.00
40315;BME280;26021;45.640;11.302;2022-12-18T07:07:43;100167.06;;;1.27;100.00
40315;BME280;26021;45.640;11.302;2022-12-18T07:10:09;100217.88;;;1.45;100.00
40315;BME280;26021;45.640;11.302;2022-12-18T07:12:35;100194.16;;;1.30;100.00
40315;BME280;26021;45.640;11.302;2022-12-18T07:15:00;100219.69;;;1.61;100.00
40315;BME280;26021;45.640;11.302;2022-12-18T07:17:26;100210.06;;;1.44;100.00
40315;BME280;26021;45.640;11.302;2022-12-18T07:19:51;100229.19;;;1.47;100.00
40315;BME280;26021;45.640;11.302;2022-12-18T07:22:17;100159.59;;;1.04;100.00
40315;BME280;26021;45.640;11.302;2022-12-18T07:24:42;100214.16;;;1.34;100.00
40315;BME280;26021;45.640;11.302;2022-12-18T07:27:07;100233.47;;;1.50;100.00
40315;BME280;26021;45.640;11.302;2022-12-18T07:29:33;100193.16;;;1.16;100.00
40315;BME280;26021;45.640;11.302;2022-12-18T07:31:58;100235.06;;;1.68;100.00
40315;BME280;26021;45.640;11.302;2022-12-18T07:34:24;100237.38;;;1.58;100.00
40315;BME280;26021;45.640;11.302;2022-12-18T07:36:49;100241.97;;;1.71;100.00
40315;BME280;26021;45.640;11.302;2022-12-18T07:39:15;100208.13;;;1.63;100.00
40315;BME280;26021;45.640;11.302;2022-12-18T07:41:40;100249.09;;;1.84;100.00
40315;BME280;26021;45.640;11.302;2022-12-18T07:44:11;100254.53;;;1.81;100.00
40315;BME280;26021;45.640;11.302;2022-12-18T07:46:37;100248.34;;;1.82;100.00
40315;BME280;26021;45.640;11.302;2022-12-18T07:49:03;100239.41;;;1.69;100.00
40315;BME280;26021;45.640;11.302;2022-12-18T07:51:28;100214.78;;;1.84;100.00
40315;BME280;26021;45.640;11.302;2022-12-18T07:53:54;100078.63;;;1.22;100.00
40315;BME280;26021;45.640;11.302;2022-12-18T07:56:20;100259.66;;;2.30;100.00
40315;BME280;26021;45.640;11.302;2022-12-18T07:58:48;100248.81;;;2.35;100.00
40315;BME280;26021;45.640;11.302;2022-12-18T08:01:14;100260.66;;;2.58;100.00
40315;BME280;26021;45.640;11.302;2022-12-18T08:03:40;100208.47;;;2.47;100.00
40315;BME280;26021;45.640;11.302;2022-12-18T08:06:07;100276.00;;;3.09;100.00
40315;BME280;26021;45.640;11.302;2022-12-18T08:08:34;100276.06;;;2.79;100.00
40315;BME280;26021;45.640;11.302;2022-12-18T08:11:00;100269.16;;;2.63;100.00
40315;BME280;26021;45.640;11.302;2022-12-18T08:13:27;100292.44;;;2.56;100.00
40315;BME280;26021;45.640;11.302;2022-12-18T08:16:03;100291.22;;;2.62;100.00
40315;BME280;26021;45.640;11.302;2022-12-18T08:18:29;100270.75;;;2.79;100.00
40315;BME280;26021;45.640;11.302;2022-12-18T08:21:11;100296.13;;;2.68;100.00
40315;BME280;26021;45.640;11.302;2022-12-18T08:23:46;100297.63;;;3.02;100.00
40315;BME280;26021;45.640;11.302;2022-12-18T08:26:12;100219.25;;;2.72;100.00
40315;BME280;26021;45.640;11.302;2022-12-18T08:28:38;100304.41;;;3.06;100.00
40315;BME280;26021;45.640;11.302;2022-12-18T08:31:04;100310.94;;;3.14;100.00
40315;BME280;26021;45.640;11.302;2022-12-18T08:33:30;100316.50;;;3.10;100.00
40315;BME280;26021;45.640;11.302;2022-12-18T08:35:56;100315.56;;;3.11;100.00
40315;BME280;26021;45.640;11.302;2022-12-18T08:38:23;100319.94;;;2.96;100.00
40315;BME280;26021;45.640;11.302;2022-12-18T08:40:48;100318.38;;;3.08;100.00
40315;BME280;26021;45.640;11.302;2022-12-18T08:43:13;100327.81;;;3.12;100.00
40315;BME280;26021;45.640;11.302;2022-12-18T08:45:57;100288.19;;;3.12;100.00
40315;BME280;26021;45.640;11.302;2022-12-18T08:48:23;100326.00;;;3.69;100.00
40315;BME280;26021;45.640;11.302;2022-12-18T08:50:59;100329.47;;;3.84;100.00
40315;BME280;26021;45.640;11.302;2022-12-18T08:53:25;100186.38;;;3.19;100.00
40315;BME280;26021;45.640;11.302;2022-12-18T08:55:52;100340.84;;;3.72;100.00
40315;BME280;26021;45.640;11.302;2022-12-18T08:58:17;100349.53;;;3.74;100.00
40315;BME280;26021;45.640;11.302;2022-12-18T09:00:43;100303.50;;;3.62;100.00
40315;BME280;26021;45.640;11.302;2022-12-18T09:03:15;100326.25;;;3.93;100.00
40315;BME280;26021;45.640;11.302;2022-12-18T09:05:41;100275.91;;;3.80;100.00
40315;BME280;26021;45.640;11.302;2022-12-18T09:08:07;100336.63;;;4.23;100.00
40315;BME280;26021;45.640;11.302;2022-12-18T09:10:33;100347.22;;;4.23;100.00
40315;BME280;26021;45.640;11.302;2022-12-18T09:12:58;100342.00;;;4.09;100.00
40315;BME280;26021;45.640;11.302;2022-12-18T09:15:24;100349.47;;;4.02;100.00
40315;BME280;26021;45.640;11.302;2022-12-18T09:17:49;100128.66;;;2.84;100.00
40315;BME280;26021;45.640;11.302;2022-12-18T09:20:16;100357.81;;;3.96;100.00
40315;BME280;26021;45.640;11.302;2022-12-18T09:22:41;100357.31;;;4.04;100.00
40315;BME280;26021;45.640;11.302;2022-12-18T09:25:07;100355.06;;;3.98;100.00
40315;BME280;26021;45.640;11.302;2022-12-18T09:27:33;100367.72;;;4.34;100.00
40315;BME280;26021;45.640;11.302;2022-12-18T09:29:59;100348.88;;;4.38;100.00
40315;BME280;26021;45.640;11.302;2022-12-18T09:32:25;100328.31;;;4.42;100.00
40315;BME280;26021;45.640;11.302;2022-12-18T09:34:50;100348.16;;;4.76;100.00
40315;BME280;26021;45.640;11.302;2022-12-18T09:37:15;100322.94;;;5.08;100.00
40315;BME280;26021;45.640;11.302;2022-12-18T09:39:41;100350.41;;;5.07;100.00
40315;BME280;26021;45.640;11.302;2022-12-18T09:42:12;100353.59;;;5.13;100.00
40315;BME280;26021;45.640;11.302;2022-12-18T09:44:44;100302.03;;;5.17;100.00
40315;BME280;26021;45.640;11.302;2022-12-18T09:49:52;100332.03;;;5.55;100.00
40315;BME280;26021;45.640;11.302;2022-12-18T09:52:35;100340.28;;;5.76;100.00
40315;BME280;26021;45.640;11.302;2022-12-18T09:58:06;100352.66;;;6.14;100.00
40315;BME280;26021;45.640;11.302;2022-12-18T10:00:32;100341.06;;;6.15;100.00
40315;BME280;26021;45.640;11.302;2022-12-18T10:03:12;100325.69;;;6.07;100.00
40315;BME280;26021;45.640;11.302;2022-12-18T10:05:44;100343.53;;;6.05;100.00
40315;BME280;26021;45.640;11.302;2022-12-18T10:08:23;100337.00;;;6.22;100.00
40315;BME280;26021;45.640;11.302;2022-12-18T10:10:52;100335.63;;;6.16;100.00
40315;BME280;26021;45.640;11.302;2022-12-18T10:13:47;100324.28;;;6.14;100.00
40315;BME280;26021;45.640;11.302;2022-12-18T10:16:19;100156.16;;;5.17;100.00
40315;BME280;26021;45.640;11.302;2022-12-18T10:19:07;100312.44;;;5.94;100.00
40315;BME280;26021;45.640;11.302;2022-12-18T10:21:55;100314.78;;;5.99;100.00
40315;BME280;26021;45.640;11.302;2022-12-18T10:27:18;100270.38;;;5.52;100.00
40315;BME280;26021;45.640;11.302;2022-12-18T10:29:46;100308.13;;;5.68;100.00
40315;BME280;26021;45.640;11.302;2022-12-18T10:32:26;100315.31;;;5.79;100.00
40315;BME280;26021;45.640;11.302;2022-12-18T10:34:55;100322.00;;;5.97;100.00
40315;BME280;26021;45.640;11.302;2022-12-18T10:37:24;100326.31;;;6.11;100.00
40315;BME280;26021;45.640;11.302;2022-12-18T10:42:33;100262.41;;;5.52;100.00
40315;BME280;26021;45.640;11.302;2022-12-18T10:45:17;100282.72;;;5.77;100.00
40315;BME280;26021;45.640;11.302;2022-12-18T10:47:47;100317.84;;;6.05;100.00
40315;BME280;26021;45.640;11.302;2022-12-18T10:50:29;100220.97;;;5.86;100.00
40315;BME280;26021;45.640;11.302;2022-12-18T10:52:58;100322.13;;;6.43;99.85
40315;BME280;26021;45.640;11.302;2022-12-18T10:55:38;100310.97;;;6.38;100.00
40315;BME280;26021;45.640;11.302;2022-12-18T10:58:27;100311.78;;;6.62;96.71
40315;BME280;26021;45.640;11.302;2022-12-18T11:06:33;100302.19;;;6.49;99.06
40315;BME280;26021;45.640;11.302;2022-12-18T11:09:00;100306.13;;;6.67;100.00
40315;BME280;26021;45.640;11.302;2022-12-18T11:11:26;100309.75;;;6.66;100.00
40315;BME280;26021;45.640;11.302;2022-12-18T11:14:06;100307.66;;;6.82;100.00
40315;BME280;26021;45.640;11.302;2022-12-18T11:16:44;100253.41;;;6.50;99.60
40315;BME280;26021;45.640;11.302;2022-12-18T11:21:55;100219.91;;;6.36;99.97
40315;BME280;26021;45.640;11.302;2022-12-18T11:24:27;100297.53;;;7.10;100.00
40315;BME280;26021;45.640;11.302;2022-12-18T11:26:55;100266.81;;;7.06;100.00
40315;BME280;26021;45.640;11.302;2022-12-18T11:29:30;100258.94;;;7.04;96.77
40315;BME280;26021;45.640;11.302;2022-12-18T11:34:41;100296.59;;;7.44;98.91
40315;BME280;26021;45.640;11.302;2022-12-18T11:37:09;100288.69;;;7.43;97.08
40315;BME280;26021;45.640;11.302;2022-12-18T11:39:40;100176.00;;;6.88;94.94
40315;BME280;26021;45.640;11.302;2022-12-18T11:42:27;100290.78;;;7.50;94.55
40315;BME280;26021;45.640;11.302;2022-12-18T11:45:03;100285.94;;;7.22;96.19
40315;BME280;26021;45.640;11.302;2022-12-18T11:47:44;100278.66;;;7.24;99.43
40315;BME280;26021;45.640;11.302;2022-12-18T11:52:54;100214.44;;;6.95;95.00
40315;BME280;26021;45.640;11.302;2022-12-18T11:55:35;100280.97;;;7.28;96.72
40315;BME280;26021;45.640;11.302;2022-12-18T11:58:26;100284.50;;;7.51;98.86
40315;BME280;26021;45.640;11.302;2022-12-18T12:01:15;100274.19;;;7.36;92.49
40315;BME280;26021;45.640;11.302;2022-12-18T12:06:48;100278.13;;;7.86;98.67
40315;BME280;26021;45.640;11.302;2022-12-18T12:15:00;100272.97;;;7.73;92.18
40315;BME280;26021;45.640;11.302;2022-12-18T12:18:05;100273.72;;;7.64;95.40
40315;BME280;26021;45.640;11.302;2022-12-18T12:20:42;100274.31;;;7.56;95.94
40315;BME280;26021;45.640;11.302;2022-12-18T12:26:03;100293.94;;;7.55;93.59
40315;BME280;26021;45.640;11.302;2022-12-18T12:29:31;100270.81;;;7.56;91.56
40315;BME280;26021;45.640;11.302;2022-12-18T12:31:44;100263.44;;;7.59;96.98
40315;BME280;26021;45.640;11.302;2022-12-18T12:37:30;100267.13;;;7.79;93.71
40315;BME280;26021;45.640;11.302;2022-12-18T12:40:01;100264.00;;;7.74;93.61
40315;BME280;26021;45.640;11.302;2022-12-18T12:45:23;100236.03;;;7.80;94.77
40315;BME280;26021;45.640;11.302;2022-12-18T12:47:52;100268.81;;;7.80;91.63
40315;BME280;26021;45.640;11.302;2022-12-18T12:50:20;100263.97;;;7.85;93.89
40315;BME280;26021;45.640;11.302;2022-12-18T12:52:52;100258.72;;;7.95;95.19
40315;BME280;26021;45.640;11.302;2022-12-18T12:55:26;100269.44;;;7.73;93.22
40315;BME280;26021;45.640;11.302;2022-12-18T12:58:19;100274.16;;;7.80;93.04
40315;BME280;26021;45.640;11.302;2022-12-18T13:00:56;100266.16;;;7.80;92.83
40315;BME280;26021;45.640;11.302;2022-12-18T13:05:54;100267.34;;;7.87;92.92
40315;BME280;26021;45.640;11.302;2022-12-18T13:08:25;100192.28;;;7.39;93.35
40315;BME280;26021;45.640;11.302;2022-12-18T13:10:53;100233.81;;;7.85;90.78
40315;BME280;26021;45.640;11.302;2022-12-18T13:13:57;100218.56;;;7.87;90.72
40315;BME280;26021;45.640;11.302;2022-12-18T13:16:24;100263.78;;;8.09;92.00
40315;BME280;26021;45.640;11.302;2022-12-18T13:18:57;100256.66;;;7.98;93.37
40315;BME280;26021;45.640;11.302;2022-12-18T13:21:42;100253.38;;;8.06;90.51
40315;BME280;26021;45.640;11.302;2022-12-18T13:24:27;100254.94;;;8.09;89.66
40315;BME280;26021;45.640;11.302;2022-12-18T13:26:54;100261.44;;;7.84;94.49
40315;BME280;26021;45.640;11.302;2022-12-18T13:29:45;100252.69;;;7.93;92.31
40315;BME280;26021;45.640;11.302;2022-12-18T13:32:24;100257.75;;;7.96;92.63
40315;BME280;26021;45.640;11.302;2022-12-18T13:37:54;100091.50;;;6.91;90.93
40315;BME280;26021;45.640;11.302;2022-12-18T13:43:23;100246.72;;;7.35;96.03
40315;BME280;26021;45.640;11.302;2022-12-18T13:49:16;100247.94;;;7.42;97.49
40315;BME280;26021;45.640;11.302;2022-12-18T13:51:51;100249.63;;;7.21;97.23
40315;BME280;26021;45.640;11.302;2022-12-18T13:56:49;100250.97;;;7.04;100.00
40315;BME280;26021;45.640;11.302;2022-12-18T13:59:21;100253.13;;;6.99;100.00
40315;BME280;26021;45.640;11.302;2022-12-18T14:01:55;100249.38;;;6.79;100.00
40315;BME280;26021;45.640;11.302;2022-12-18T14:04:30;100247.06;;;6.75;100.00
40315;BME280;26021;45.640;11.302;2022-12-18T14:07:04;100253.59;;;6.71;100.00
40315;BME280;26021;45.640;11.302;2022-12-18T14:09:35;100250.16;;;6.57;100.00
40315;BME280;26021;45.640;11.302;2022-12-18T14:12:01;100196.66;;;6.16;100.00
40315;BME280;26021;45.640;11.302;2022-12-18T14:14:51;100187.19;;;6.00;100.00
40315;BME280;26021;45.640;11.302;2022-12-18T14:17:17;100187.13;;;5.89;100.00